Time;durP1;ratioP1;P1;durP2;ratioP2;P2;SDS_P1;SDS_P2;PMS_P1;PMS_P2;Temp;Humidity;BMP_temperature;BMP_pressure;BME280_temperature;BME280_humidity;BME280_pressure;Samples;Min_cycle;Max_cycle;Signal;HPM_P1;HPM_P2
2021/03/20 00:00:55;;;;;;;20.50;10.87;;;;;;;2.24;87.42;103080.81;5060366;28;20011;-76
2021/03/20 00:03:21;;;;;;;18.20;11.13;;;;;;;2.30;87.32;103077.97;5067963;28;20023;-76
2021/03/20 00:05:47;;;;;;;19.40;10.95;;;;;;;2.33;87.30;103074.09;5063402;28;20115;-76
2021/03/20 00:08:17;;;;;;;20.95;10.95;;;;;;;2.33;86.90;103073.19;5072998;28;20086;-76
2021/03/20 00:10:42;;;;;;;20.53;10.80;;;;;;;2.33;87.10;103073.19;5066072;28;20474;-76
2021/03/20 00:13:08;;;;;;;17.50;10.93;;;;;;;2.27;86.77;103081.09;5056038;28;20032;-76
2021/03/20 00:15:33;;;;;;;24.37;11.00;;;;;;;2.19;86.45;103076.97;5040351;28;20075;-76
2021/03/20 00:17:58;;;;;;;21.85;10.48;;;;;;;2.12;86.41;103077.16;5052698;28;20302;-76
2021/03/20 00:20:30;;;;;;;18.33;10.65;;;;;;;2.05;86.23;103082.41;5052530;28;20032;-76
2021/03/20 00:22:56;;;;;;;19.87;10.87;;;;;;;1.97;86.71;103074.09;5056468;28;20436;-77
2021/03/20 00:25:21;;;;;;;17.63;10.95;;;;;;;1.95;87.13;103078.13;5066286;28;20032;-76
2021/03/20 00:27:47;;;;;;;18.95;11.25;;;;;;;1.91;87.26;103077.66;5054613;28;20036;-76
2021/03/20 00:30:16;;;;;;;22.73;10.63;;;;;;;1.89;87.09;103077.53;5060263;28;20526;-76
2021/03/20 00:32:42;;;;;;;19.30;11.23;;;;;;;1.83;87.35;103076.94;5051146;28;20056;-76
2021/03/20 00:35:09;;;;;;;23.50;11.70;;;;;;;1.77;87.12;103073.84;5034738;28;20502;-76
2021/03/20 00:37:35;;;;;;;19.13;10.67;;;;;;;1.71;87.44;103074.16;5034375;28;20017;-76
2021/03/20 00:40:00;;;;;;;19.58;11.60;;;;;;;1.65;87.49;103076.13;5034389;28;20059;-76
2021/03/20 00:42:26;;;;;;;20.10;11.45;;;;;;;1.62;87.38;103083.41;5051804;28;20447;-76
2021/03/20 00:44:51;;;;;;;20.10;11.45;;;;;;;1.58;87.83;103086.38;5052266;28;20112;-76
2021/03/20 00:47:17;;;;;;;17.13;11.35;;;;;;;1.56;87.88;103083.72;5051958;28;20050;-76
2021/03/20 00:49:42;;;;;;;21.98;12.40;;;;;;;1.54;88.19;103087.75;5055197;28;20395;-76
2021/03/20 00:52:07;;;;;;;18.20;11.55;;;;;;;1.51;88.52;103089.09;5059938;28;20024;-76
2021/03/20 00:54:33;;;;;;;21.63;11.83;;;;;;;1.48;88.41;103092.22;5052101;28;20039;-76
2021/03/20 00:56:58;;;;;;;19.50;11.87;;;;;;;1.46;88.41;103090.28;5056928;28;20071;-76
2021/03/20 00:59:24;;;;;;;20.08;11.65;;;;;;;1.45;88.19;103083.44;5071934;28;20286;-76
2021/03/20 01:01:49;;;;;;;20.55;12.05;;;;;;;1.45;88.41;103086.88;5071536;28;20056;-76
2021/03/20 01:04:14;;;;;;;24.65;12.20;;;;;;;1.40;88.40;103089.72;5071854;28;20016;-76
2021/03/20 01:06:40;;;;;;;19.23;12.60;;;;;;;1.32;88.49;103094.03;5071791;28;20057;-76
2021/03/20 01:09:06;;;;;;;18.63;12.00;;;;;;;1.27;88.54;103089.25;5071686;28;20032;-76
2021/03/20 01:11:31;;;;;;;18.20;11.70;;;;;;;1.28;88.60;103089.41;5060073;28;20275;-76
2021/03/20 01:13:57;;;;;;;21.42;13.07;;;;;;;1.25;88.72;103097.59;5051743;28;20025;-76
2021/03/20 01:16:24;;;;;;;22.93;12.67;;;;;;;1.18;89.15;103090.16;5060078;28;20032;-76
2021/03/20 01:18:50;;;;;;;20.52;12.60;;;;;;;1.15;89.16;103089.84;5071649;28;20025;-76
2021/03/20 01:21:15;;;;;;;21.30;12.20;;;;;;;1.13;89.10;103103.13;5070964;28;20025;-76
2021/03/20 01:23:41;;;;;;;23.10;13.20;;;;;;;1.09;89.30;103095.97;5071565;28;20034;-76
2021/03/20 01:26:07;;;;;;;17.63;11.90;;;;;;;1.10;89.16;103095.22;5064656;28;20441;-76
2021/03/20 01:28:35;;;;;;;18.88;11.57;;;;;;;1.08;89.10;103099.25;5051548;28;20057;-76
2021/03/20 01:31:00;;;;;;;22.33;12.13;;;;;;;1.05;88.69;103094.78;5051032;28;20048;-76
2021/03/20 01:33:27;;;;;;;17.80;10.82;;;;;;;1.04;88.92;103095.53;5051450;28;20029;-76
2021/03/20 01:35:53;;;;;;;17.53;11.00;;;;;;;1.03;88.31;103083.63;5033284;28;20033;-76
2021/03/20 01:38:19;;;;;;;14.88;10.05;;;;;;;1.01;88.60;103087.63;5051464;28;20039;-76
2021/03/20 01:40:57;;;;;;;15.18;9.57;;;;;;;1.00;88.53;103090.91;5050707;28;20053;-76
2021/03/20 01:43:25;;;;;;;15.97;10.83;;;;;;;0.94;88.13;103086.13;5033332;28;20483;-76
2021/03/20 01:45:50;;;;;;;17.27;9.90;;;;;;;0.89;87.91;103088.94;5032902;28;20116;-75
2021/03/20 01:48:30;;;;;;;12.70;9.25;;;;;;;0.82;87.62;103081.50;5051272;28;20048;-76
2021/03/20 01:50:59;;;;;;;15.87;9.70;;;;;;;0.74;87.66;103074.81;5067337;28;20028;-76
2021/03/20 01:53:33;;;;;;;13.47;9.10;;;;;;;0.71;87.67;103082.09;5053244;28;20037;-76
2021/03/20 01:55:59;;;;;;;18.57;10.33;;;;;;;0.65;87.49;103082.38;5032574;28;20064;-76
2021/03/20 01:58:26;;;;;;;;;;;;;;;0.61;87.63;103078.63;5051370;28;20474;-76
2021/03/20 02:01:01;;;;;;;16.83;10.02;;;;;;;0.61;87.53;103078.63;5050452;28;19949;-76
2021/03/20 02:03:29;;;;;;;16.03;9.33;;;;;;;0.57;87.80;103079.06;5063996;28;20490;-76
2021/03/20 02:05:54;;;;;;;18.13;8.60;;;;;;;0.46;87.17;103074.59;5070946;28;20028;-76
2021/03/20 02:08:19;;;;;;;16.33;9.90;;;;;;;0.47;87.53;103071.31;5070856;28;20493;-76
2021/03/20 02:10:47;;;;;;;15.40;9.35;;;;;;;0.44;87.54;103068.47;5070525;28;21474;-76
2021/03/20 02:13:27;;;;;;;13.43;8.57;;;;;;;0.46;87.58;103074.59;5070942;28;20703;-76
2021/03/20 02:16:00;;;;;;;13.30;8.93;;;;;;;0.49;87.87;103079.06;5049435;28;20552;-76
2021/03/20 02:18:44;;;;;;;12.90;8.73;;;;;;;0.36;87.77;103084.53;5050859;28;20103;-76
2021/03/20 02:21:27;;;;;;;12.77;8.20;;;;;;;0.15;88.06;103090.84;5032467;28;20025;-76
2021/03/20 02:24:30;;;;;;;14.00;9.20;;;;;;;0.08;88.74;103093.47;5050383;28;20661;-76
2021/03/20 02:26:55;;;;;;;14.43;9.03;;;;;;;0.08;88.50;103092.59;5050650;28;20021;-77
2021/03/20 02:29:39;;;;;;;14.57;9.43;;;;;;;0.10;88.65;103091.09;5049150;28;20131;-76
2021/03/20 02:32:32;;;;;;;15.13;9.30;;;;;;;0.10;88.79;103091.09;5049706;28;20155;-76
2021/03/20 02:35:16;;;;;;;13.80;9.27;;;;;;;0.08;88.73;103096.00;5032924;28;20021;-76
2021/03/20 02:38:12;;;;;;;15.77;9.87;;;;;;;0.09;88.66;103095.28;5050697;28;20078;-76
2021/03/20 02:41:09;;;;;;;14.17;8.67;;;;;;;0.10;88.75;103094.53;5032416;28;20025;-76
2021/03/20 02:43:59;;;;;;;13.93;7.90;;;;;;;0.06;89.09;103094.06;5032933;28;20025;-76
2021/03/20 02:46:38;;;;;;;16.10;8.73;;;;;;;-0.10;88.32;103089.97;5050439;28;20031;-76
2021/03/20 02:49:24;;;;;;;14.10;8.90;;;;;;;-0.04;88.72;103093.09;5050661;28;20167;-76
2021/03/20 02:51:58;;;;;;;10.85;6.47;;;;;;;-0.21;88.51;103093.03;5032633;28;20036;-76
2021/03/20 02:54:27;;;;;;;17.40;10.30;;;;;;;-0.34;89.36;103089.97;5056061;28;20562;-76
2021/03/20 02:56:59;;;;;;;14.73;9.90;;;;;;;-0.34;89.22;103092.47;5052058;28;20020;-76
2021/03/20 02:59:30;;;;;;;13.43;9.50;;;;;;;-0.30;89.29;103104.72;5054676;28;20402;-77
2021/03/20 03:01:59;;;;;;;13.97;9.87;;;;;;;-0.35;89.25;103098.28;5054536;28;20025;-76
2021/03/20 03:04:29;;;;;;;14.40;9.53;;;;;;;-0.43;89.38;103096.59;5074514;28;20027;-76
2021/03/20 03:07:00;;;;;;;19.10;10.13;;;;;;;-0.48;89.85;103091.06;5074242;28;20520;-76
2021/03/20 03:09:33;;;;;;;15.33;9.37;;;;;;;-0.52;89.68;103098.16;5074356;28;20111;-77
2021/03/20 03:12:04;;;;;;;12.37;8.70;;;;;;;-0.55;90.14;103092.81;5056159;28;20501;-76
2021/03/20 03:14:38;;;;;;;15.80;9.17;;;;;;;-0.56;90.57;103091.03;5074111;28;20512;-76
2021/03/20 03:17:04;;;;;;;14.27;9.57;;;;;;;-0.58;90.61;103092.50;5074285;28;20541;-76
2021/03/20 03:19:37;;;;;;;17.27;11.67;;;;;;;-0.60;91.04;103092.34;5055973;28;20044;-76
2021/03/20 03:22:07;;;;;;;19.17;11.00;;;;;;;-0.56;91.03;103086.88;5068868;28;20118;-76
2021/03/20 03:24:36;;;;;;;17.20;10.60;;;;;;;-0.50;91.30;103091.66;5060325;28;20048;-76
2021/03/20 03:27:09;;;;;;;14.90;9.33;;;;;;;-0.19;91.26;103085.63;5055911;28;20028;-76
2021/03/20 03:29:35;;;;;;;15.87;9.50;;;;;;;-0.49;90.50;103095.97;5073925;28;20023;-76
2021/03/20 03:32:13;;;;;;;14.30;8.93;;;;;;;-0.62;90.25;103091.28;5055573;28;20115;-76
2021/03/20 03:34:49;;;;;;;15.70;10.03;;;;;;;-0.72;90.60;103089.41;5035053;28;20033;-77
2021/03/20 03:37:26;;;;;;;20.35;10.73;;;;;;;-0.75;90.47;103086.56;5053711;28;20027;-76
2021/03/20 03:39:54;;;;;;;20.57;10.53;;;;;;;-0.75;90.66;103083.16;5035922;28;20071;-77
2021/03/20 03:42:22;;;;;;;16.90;10.20;;;;;;;-0.75;90.70;103091.59;5053184;28;20017;-76
2021/03/20 03:44:50;;;;;;;17.93;11.07;;;;;;;-0.74;91.07;103085.81;5035772;28;20035;-75
2021/03/20 03:47:20;;;;;;;19.90;10.00;;;;;;;-0.71;91.11;103088.66;5053078;28;20029;-76
2021/03/20 03:49:46;;;;;;;17.13;10.27;;;;;;;-0.71;91.17;103081.09;5053590;28;20108;-76
2021/03/20 03:52:13;;;;;;;14.45;8.85;;;;;;;-0.49;91.22;103084.25;5055929;28;20103;-76
2021/03/20 03:54:40;;;;;;;16.33;10.10;;;;;;;-0.67;90.10;103084.84;5073513;28;20024;-74
2021/03/20 03:57:43;;;;;;;19.13;10.37;;;;;;;-0.78;90.36;103078.66;5073361;28;20016;-76
2021/03/20 04:00:20;;;;;;;14.43;9.17;;;;;;;-0.85;90.24;103081.28;5001008;28;20069;-75
2021/03/20 04:03:47;;;;;;;13.97;9.10;;;;;;;-0.78;90.58;103086.25;5055072;28;20109;-76
2021/03/20 04:06:37;;;;;;;16.40;8.40;;;;;;;-0.89;90.74;103099.38;4991624;28;20091;-76
2021/03/20 04:09:16;;;;;;;15.87;9.57;;;;;;;-1.06;90.32;103099.19;5073131;28;20032;-76
2021/03/20 04:12:04;;;;;;;16.50;9.43;;;;;;;-1.03;90.54;103095.38;5054688;28;20024;-76
2021/03/20 04:14:35;;;;;;;18.33;9.33;;;;;;;-1.08;90.68;103105.72;5055010;28;20060;-76
2021/03/20 04:17:18;;;;;;;13.73;9.37;;;;;;;-0.92;91.48;103104.09;5073015;28;20052;-76
2021/03/20 04:20:02;;;;;;;16.83;9.20;;;;;;;-1.00;91.54;103109.94;5038385;28;20044;-76
2021/03/20 04:23:03;;;;;;;14.53;9.63;;;;;;;-1.13;90.87;103110.28;5034679;28;20367;-76
2021/03/20 04:25:51;;;;;;;16.37;9.07;;;;;;;-1.21;91.02;103105.16;5034969;28;20415;-77
2021/03/20 04:28:40;;;;;;;16.47;10.60;;;;;;;-1.19;91.46;103107.09;5034925;28;20083;-76
2021/03/20 04:31:21;;;;;;;21.70;11.63;;;;;;;-1.13;91.23;103112.78;5034645;28;20017;-76
2021/03/20 04:34:14;;;;;;;19.80;10.97;;;;;;;-1.09;91.45;103116.53;5052747;28;20033;-76
2021/03/20 04:36:45;;;;;;;18.37;11.03;;;;;;;-1.09;91.48;103109.84;5067948;28;20067;-76
2021/03/20 04:39:14;;;;;;;16.10;10.70;;;;;;;-1.05;91.96;103114.50;5055885;28;20098;-76
2021/03/20 04:41:41;;;;;;;16.13;10.83;;;;;;;-1.10;91.56;103113.13;5052121;28;20024;-76
2021/03/20 04:44:07;;;;;;;19.10;11.40;;;;;;;-1.14;91.24;103112.63;5034732;28;20021;-77
2021/03/20 04:46:34;;;;;;;19.80;10.98;;;;;;;-1.17;91.55;103109.78;5034446;28;20052;-77
2021/03/20 04:49:20;;;;;;;20.97;11.37;;;;;;;-1.14;92.02;103110.09;5033077;28;20031;-76
2021/03/20 04:51:51;;;;;;;17.63;10.90;;;;;;;-1.17;92.18;103110.69;5050215;28;20750;-76
2021/03/20 04:54:19;;;;;;;19.60;11.50;;;;;;;-1.19;91.74;103111.25;5032831;28;20029;-77
2021/03/20 04:57:10;;;;;;;18.60;11.57;;;;;;;-1.21;91.79;103107.66;5034775;28;20083;-77
2021/03/20 05:00:05;;;;;;;18.67;11.63;;;;;;;-1.15;92.14;103113.38;5070895;28;20086;-77
2021/03/20 05:02:38;;;;;;;20.93;11.83;;;;;;;-1.04;92.26;103110.34;5072028;28;20032;-77
2021/03/20 05:05:25;;;;;;;20.37;11.90;;;;;;;-0.87;92.65;103113.03;5072202;28;20493;-76
2021/03/20 05:07:52;;;;;;;16.83;10.95;;;;;;;-0.84;92.42;103113.34;5072528;28;20028;-77
2021/03/20 05:10:32;;;;;;;17.77;10.20;;;;;;;-0.90;92.07;103112.72;5072315;28;20051;-76
2021/03/20 05:12:59;;;;;;;17.63;10.70;;;;;;;-0.95;91.81;103114.75;5054311;28;20020;-77
2021/03/20 05:15:30;;;;;;;16.70;10.07;;;;;;;-0.91;91.81;103115.09;5071977;28;20024;-77
2021/03/20 05:17:55;;;;;;;16.00;9.70;;;;;;;-0.87;91.53;103115.56;5072318;28;20028;-76
2021/03/20 05:20:21;;;;;;;18.13;11.15;;;;;;;-0.78;91.72;103114.00;5042123;28;20021;-75
2021/03/20 05:22:48;;;;;;;18.63;10.35;;;;;;;-0.79;92.22;103117.25;5034345;28;20618;-76
2021/03/20 05:25:16;;;;;;;17.27;10.73;;;;;;;-0.90;91.84;103120.28;5034034;28;20061;-76
2021/03/20 05:27:41;;;;;;;15.73;9.73;;;;;;;-0.85;92.12;103129.22;5052103;28;20556;-76
2021/03/20 05:30:07;;;;;;;21.05;11.10;;;;;;;-0.86;92.17;103129.97;5060845;28;20024;-76
2021/03/20 05:32:34;;;;;;;19.90;11.23;;;;;;;-0.86;92.33;103129.97;5071859;28;20493;-77
2021/03/20 05:35:05;;;;;;;18.77;10.93;;;;;;;-0.82;92.30;103126.13;5072170;28;20447;-76
2021/03/20 05:37:33;;;;;;;22.37;13.20;;;;;;;-0.67;92.84;103127.75;5054205;28;20029;-76
2021/03/20 05:39:59;;;;;;;21.43;12.13;;;;;;;-0.59;93.19;103123.53;5072170;28;20052;-76
2021/03/20 05:42:51;;;;;;;18.67;11.57;;;;;;;-0.54;93.30;103120.72;5074682;23;20048;-75
2021/03/20 05:45:52;;;;;;;21.17;13.23;;;;;;;-0.45;93.07;103128.38;5051687;28;20017;-76
2021/03/20 05:48:24;;;;;;;21.33;12.50;;;;;;;-0.39;92.99;103132.41;5025275;28;20060;-76
2021/03/20 05:51:14;;;;;;;21.77;12.60;;;;;;;-0.28;93.14;103133.56;5070855;28;20093;-76
2021/03/20 05:54:13;;;;;;;18.83;11.50;;;;;;;-0.29;92.49;103126.72;5051011;28;20033;-76
2021/03/20 05:56:55;;;;;;;19.50;11.70;;;;;;;-0.24;92.30;103137.28;5033225;28;20089;-74
2021/03/20 05:59:32;;;;;;;20.93;12.00;;;;;;;-0.23;92.57;103131.50;5051299;28;20559;-76
2021/03/20 06:02:25;;;;;;;22.90;13.75;;;;;;;-0.21;92.58;103122.44;5045331;28;20394;-76
2021/03/20 06:05:02;;;;;;;18.73;11.13;;;;;;;-0.15;92.71;103125.59;5070449;28;20600;-75
2021/03/20 06:07:57;;;;;;;21.17;12.77;;;;;;;0.21;93.00;103123.41;5053084;28;20025;-76
2021/03/20 06:10:47;;;;;;;20.20;12.30;;;;;;;0.49;91.73;103122.03;5050558;28;20043;-75
2021/03/20 06:13:19;;;;;;;23.80;12.97;;;;;;;0.68;90.54;103120.63;5032601;28;20037;-76
2021/03/20 06:16:05;;;;;;;20.53;12.97;;;;;;;0.79;89.96;103129.25;5050725;28;20029;-76
2021/03/20 06:19:05;;;;;;;21.73;13.00;;;;;;;0.90;89.75;103128.69;5032940;28;20406;-76
2021/03/20 06:21:54;;;;;;;20.93;12.93;;;;;;;0.85;90.07;103137.47;5068030;28;20116;-75
2021/03/20 06:25:04;;;;;;;22.27;13.23;;;;;;;0.87;90.38;103141.94;5070761;28;20029;-76
2021/03/20 06:27:40;;;;;;;19.07;12.07;;;;;;;1.04;90.45;103141.09;4988939;28;20072;-76
2021/03/20 06:30:37;;;;;;;21.35;13.20;;;;;;;1.16;89.75;103134.69;5063237;28;20090;-76
2021/03/20 06:33:15;;;;;;;16.17;10.40;;;;;;;1.24;89.33;103145.53;5074684;28;20024;-76
2021/03/20 06:35:50;;;;;;;19.57;12.23;;;;;;;1.37;88.71;103142.59;5066438;28;20112;-76
2021/03/20 06:38:22;;;;;;;21.93;12.43;;;;;;;1.51;88.49;103158.38;5056173;28;20036;-76
2021/03/20 06:41:00;;;;;;;17.67;11.87;;;;;;;1.59;87.94;103155.69;5055709;28;20061;-77
2021/03/20 06:43:32;;;;;;;20.33;12.67;;;;;;;1.66;87.79;103158.97;5036535;28;20028;-75
2021/03/20 06:45:57;;;;;;;21.57;12.57;;;;;;;1.71;87.81;103162.84;5054510;28;20174;-76
2021/03/20 06:48:28;;;;;;;18.90;12.68;;;;;;;1.80;87.54;103167.88;5053940;28;20529;-76
2021/03/20 06:50:57;;;;;;;18.07;11.80;;;;;;;1.88;86.91;103172.03;5056206;28;20020;-75
2021/03/20 06:53:44;;;;;;;31.00;11.67;;;;;;;1.99;86.75;103166.38;5056260;28;20048;-76
2021/03/20 06:56:15;;;;;;;18.42;12.35;;;;;;;2.09;86.43;103180.81;5072766;28;20044;-76
2021/03/20 06:58:42;;;;;;;16.90;11.50;;;;;;;2.28;85.45;103170.78;5052859;28;20029;-76
2021/03/20 07:01:25;;;;;;;21.07;12.10;;;;;;;2.30;85.39;103176.88;5052183;28;20387;-73
2021/03/20 07:04:15;;;;;;;19.80;11.77;;;;;;;2.31;85.61;103179.56;5036279;28;20028;-75
2021/03/20 07:07:06;;;;;;;22.60;11.47;;;;;;;2.27;85.42;103180.00;5054150;28;20028;-76
2021/03/20 07:09:33;;;;;;;19.30;12.20;;;;;;;2.28;85.79;103186.88;5036305;28;20083;-76
2021/03/20 07:12:08;;;;;;;20.53;12.00;;;;;;;2.42;85.74;103185.63;5053631;28;20033;-76
2021/03/20 07:14:41;;;;;;;18.37;11.17;;;;;;;2.48;85.37;103178.59;5053907;28;20082;-75
2021/03/20 07:17:26;;;;;;;19.27;12.63;;;;;;;2.53;84.93;103174.84;5036104;28;20051;-75
2021/03/20 07:19:52;;;;;;;17.00;10.80;;;;;;;2.70;84.58;103179.84;5053855;28;20024;-73
2021/03/20 07:22:24;;;;;;;;;;;;;;;2.86;84.14;103173.63;5053934;28;20099;-76
2021/03/20 07:24:50;;;;;;;16.33;10.50;;;;;;;3.05;84.06;103174.59;5053428;28;19913;-75
2021/03/20 07:27:15;;;;;;;18.85;10.63;;;;;;;3.21;82.96;103161.63;5053569;28;20360;-75
2021/03/20 07:29:47;;;;;;;17.20;10.80;;;;;;;3.31;82.23;103164.25;5059740;28;20477;-75
2021/03/20 07:32:22;;;;;;;18.30;9.60;;;;;;;3.48;80.77;103169.19;5055244;28;20024;-76
2021/03/20 07:34:47;;;;;;;14.87;9.63;;;;;;;3.75;80.35;103161.47;5073434;28;20034;-75
2021/03/20 07:37:19;;;;;;;15.70;9.38;;;;;;;3.94;78.80;103163.09;5073624;28;20024;-75
2021/03/20 07:39:46;;;;;;;13.87;9.87;;;;;;;4.12;77.18;103159.59;5073327;28;20394;-75
2021/03/20 07:42:29;;;;;;;15.27;8.60;;;;;;;4.24;77.38;103162.31;5072465;28;20452;-75
2021/03/20 07:44:58;;;;;;;12.63;8.60;;;;;;;4.01;74.98;103167.94;5055226;28;20032;-76
2021/03/20 07:47:33;;;;;;;14.53;8.67;;;;;;;4.05;75.44;103149.66;5073231;28;20031;-75
2021/03/20 07:50:15;;;;;;;12.67;8.67;;;;;;;4.27;75.04;103150.75;5073082;28;20033;-75
2021/03/20 07:52:40;;;;;;;13.43;8.23;;;;;;;4.11;73.61;103151.81;5072803;28;20043;-75
2021/03/20 07:55:14;;;;;;;12.48;7.63;;;;;;;4.23;72.55;103158.00;5054947;28;20020;-74
2021/03/20 07:58:00;;;;;;;10.27;6.53;;;;;;;4.00;70.97;103163.63;5073011;28;20034;-75
2021/03/20 08:00:34;;;;;;;11.50;7.30;;;;;;;3.45;71.82;103158.75;5071237;28;20017;-75
2021/03/20 08:03:15;;;;;;;10.77;8.90;;;;;;;3.49;73.48;103162.44;5052535;28;20099;-75
2021/03/20 08:05:41;;;;;;;11.50;6.60;;;;;;;3.65;72.15;103148.72;5034646;28;20398;-73
2021/03/20 08:08:15;;;;;;;11.90;7.25;;;;;;;3.66;72.19;103155.56;5035035;28;20025;-75
2021/03/20 08:10:48;;;;;;;10.90;5.83;;;;;;;3.98;71.99;103162.59;5052567;28;20108;-75
2021/03/20 08:13:13;;;;;;;13.63;6.57;;;;;;;4.01;72.52;103161.22;5050990;28;20040;-75
2021/03/20 08:15:43;;;;;;;9.77;6.43;;;;;;;3.97;70.74;103163.34;5053793;28;20032;-75
2021/03/20 08:18:25;;;;;;;12.83;7.57;;;;;;;4.28;71.89;103161.81;5034135;28;20112;-75
2021/03/20 08:21:15;;;;;;;12.00;7.37;;;;;;;4.38;70.72;103165.28;5051694;28;20028;-76
2021/03/20 08:24:11;;;;;;;12.33;7.60;;;;;;;4.87;69.65;103163.44;5065772;28;20060;-75
2021/03/20 08:26:54;;;;;;;13.57;7.07;;;;;;;4.91;68.62;103158.75;5072054;28;20027;-78
2021/03/20 08:29:56;;;;;;;11.50;7.23;;;;;;;5.45;69.07;103148.75;5050504;28;20036;-77
2021/03/20 08:32:42;;;;;;;13.37;7.63;;;;;;;6.22;69.71;103146.47;5051466;28;20032;-75
2021/03/20 08:35:17;;;;;;;10.03;5.60;;;;;;;7.64;59.93;103139.28;5051950;28;20473;-75
2021/03/20 08:38:35;;;;;;;10.57;6.43;;;;;;;8.42;60.66;103145.72;5051567;28;20075;-78
2021/03/20 08:41:12;;;;;;;10.80;6.13;;;;;;;9.36;54.25;103140.97;4989603;28;20478;-76
2021/03/20 08:44:25;;;;;;;9.15;5.45;;;;;;;11.70;51.13;103140.66;4990642;28;20436;-75
2021/03/20 08:47:12;;;;;;;8.25;5.20;;;;;;;12.25;46.92;103142.84;5003044;28;20037;-74
2021/03/20 08:49:46;;;;;;;10.55;5.38;;;;;;;12.89;49.37;103149.66;5051678;28;20017;-74
2021/03/20 08:52:25;;;;;;;8.60;5.32;;;;;;;14.02;45.10;103143.19;5033132;28;20077;-76
2021/03/20 08:54:56;;;;;;;7.05;5.13;;;;;;;14.13;42.58;103146.28;5050322;28;20167;-76
2021/03/20 08:57:47;;;;;;;9.80;5.97;;;;;;;12.34;44.90;103153.63;5051376;28;20029;-76
2021/03/20 09:00:54;;;;;;;9.20;6.20;;;;;;;9.97;49.95;103162.88;5050858;28;20025;-75
2021/03/20 09:03:27;;;;;;;9.48;6.70;;;;;;;8.79;53.81;103167.88;5021575;28;20120;-75
2021/03/20 09:05:57;;;;;;;10.27;6.72;;;;;;;7.91;55.12;103175.31;5051137;28;20065;-75
2021/03/20 09:08:35;;;;;;;9.18;6.30;;;;;;;10.05;51.86;103165.03;5051277;28;20036;-75
2021/03/20 09:11:06;;;;;;;9.75;6.28;;;;;;;11.34;49.08;103154.03;5050661;28;20128;-77
2021/03/20 09:13:44;;;;;;;9.55;6.47;;;;;;;9.83;48.29;103161.13;5033363;28;20031;-76
2021/03/20 09:16:26;;;;;;;7.93;6.50;;;;;;;8.87;51.76;103164.16;5051268;28;20086;-73
2021/03/20 09:18:52;;;;;;;11.07;7.00;;;;;;;8.38;53.32;103163.34;5051007;28;20397;-73
2021/03/20 09:21:19;;;;;;;9.88;7.10;;;;;;;10.65;53.70;103157.69;5050489;28;20119;-76
2021/03/20 09:23:49;;;;;;;8.75;6.13;;;;;;;12.26;47.56;103145.50;5049623;28;20375;-76
2021/03/20 09:26:42;;;;;;;9.65;6.15;;;;;;;12.70;43.97;103144.38;5050871;28;20056;-73
2021/03/20 09:29:23;;;;;;;7.25;6.00;;;;;;;13.60;42.85;103141.16;5050344;28;20017;-74
2021/03/20 09:31:54;;;;;;;7.20;5.25;;;;;;;14.79;38.13;103138.88;5050360;28;20449;-74
2021/03/20 09:34:35;;;;;;;5.72;4.15;;;;;;;15.29;38.79;103133.25;5032578;28;20071;-75
2021/03/20 09:37:05;;;;;;;9.65;5.18;;;;;;;13.49;36.73;103142.34;5050684;28;20556;-76
2021/03/20 09:39:40;;;;;;;8.77;5.57;;;;;;;15.07;37.74;103133.19;5050575;28;20036;-74
2021/03/20 09:42:24;;;;;;;7.47;5.30;;;;;;;14.41;37.36;103134.59;5049763;28;20049;-75
2021/03/20 09:44:50;;;;;;;8.30;5.63;;;;;;;12.17;42.40;103133.81;5032960;28;20060;-76
2021/03/20 09:47:52;;;;;;;10.02;5.72;;;;;;;12.66;40.57;103137.25;5050516;28;20036;-76
2021/03/20 09:50:17;;;;;;;8.73;5.75;;;;;;;13.12;39.93;103139.63;5025872;28;20628;-76
2021/03/20 09:52:47;;;;;;;8.20;5.63;;;;;;;13.12;40.43;103140.50;5050079;28;20036;-76
2021/03/20 09:55:31;;;;;;;7.38;5.25;;;;;;;14.04;41.56;103130.34;5032633;28;20286;-77
2021/03/20 09:58:27;;;;;;;7.30;5.55;;;;;;;15.05;38.69;103129.66;5050212;28;20025;-76
2021/03/20 10:00:53;;;;;;;9.20;5.10;;;;;;;15.14;35.64;103124.84;5049568;28;20159;-76
2021/03/20 10:03:48;;;;;;;8.82;5.25;;;;;;;16.57;34.73;103130.41;5050263;28;20107;-76
2021/03/20 10:06:20;;;;;;;7.25;5.63;;;;;;;16.76;36.20;103131.97;5065465;28;20043;-77
2021/03/20 10:08:57;;;;;;;8.43;5.70;;;;;;;16.50;32.61;103131.91;5051948;28;20501;-77
2021/03/20 10:11:39;;;;;;;8.35;5.85;;;;;;;16.67;36.78;103129.06;5069875;28;20085;-76
2021/03/20 10:14:29;;;;;;;8.63;6.03;;;;;;;16.59;33.04;103128.78;5070395;28;20059;-77
2021/03/20 10:17:14;;;;;;;5.80;5.10;;;;;;;14.10;35.84;103122.88;5070090;28;20114;-76
2021/03/20 10:19:55;;;;;;;7.13;5.50;;;;;;;13.69;38.72;103121.84;5069781;28;20051;-78
2021/03/20 10:22:27;;;;;;;8.70;5.60;;;;;;;15.75;39.41;103129.94;5069255;28;20107;-77
2021/03/20 10:24:54;;;;;;;5.32;4.30;;;;;;;16.29;32.71;103114.69;5051896;28;20035;-76
2021/03/20 10:27:27;;;;;;;5.90;4.22;;;;;;;16.81;34.27;103117.44;5047812;28;20052;-77
2021/03/20 10:29:53;;;;;;;4.63;3.17;;;;;;;17.23;33.46;103114.50;5069219;28;20070;-77
2021/03/20 10:32:23;;;;;;;5.25;3.58;;;;;;;18.35;29.13;103114.50;5051525;28;20024;-77
2021/03/20 10:35:06;;;;;;;4.45;2.85;;;;;;;18.67;31.32;103106.72;5056727;28;20024;-74
2021/03/20 10:37:34;;;;;;;4.65;2.88;;;;;;;19.22;31.20;103098.59;5049619;28;20029;-75
2021/03/20 10:40:05;;;;;;;4.32;2.70;;;;;;;18.65;29.32;103106.69;5032224;28;20025;-77
2021/03/20 10:42:37;;;;;;;5.20;2.75;;;;;;;15.79;31.80;103104.19;5046616;28;20108;-75
2021/03/20 10:45:14;;;;;;;4.85;2.80;;;;;;;17.86;29.50;103099.19;5050501;28;20028;-74
2021/03/20 10:47:40;;;;;;;3.83;2.42;;;;;;;18.41;30.15;103091.25;5050043;28;20032;-77
2021/03/20 10:50:24;;;;;;;4.03;2.78;;;;;;;19.14;30.30;103087.94;5056790;28;20024;-74
2021/03/20 10:52:51;;;;;;;3.70;2.55;;;;;;;18.17;27.65;103093.16;5039062;28;20020;-76
2021/03/20 10:55:21;;;;;;;3.63;2.45;;;;;;;19.72;28.13;103084.09;5051974;28;20036;-77
2021/03/20 10:57:47;;;;;;;5.88;2.33;;;;;;;19.55;25.93;103085.47;5051363;28;20044;-76
2021/03/20 11:00:22;;;;;;;5.03;2.10;;;;;;;20.12;28.57;103079.72;5047400;28;20025;-76
2021/03/20 11:02:48;;;;;;;3.85;2.03;;;;;;;19.68;25.14;103082.28;5050550;28;20033;-76
2021/03/20 11:05:20;;;;;;;3.78;2.17;;;;;;;19.88;25.73;103078.38;5039093;28;20016;-76
2021/03/20 11:07:57;;;;;;;4.85;2.08;;;;;;;19.64;27.13;103075.25;5058453;28;20055;-78
2021/03/20 11:10:32;;;;;;;4.63;2.83;;;;;;;19.80;29.61;103077.31;5067053;28;20017;-74
2021/03/20 11:13:06;;;;;;;4.53;3.13;;;;;;;20.22;28.22;103076.44;5068092;28;20093;-76
2021/03/20 11:15:34;;;;;;;3.58;2.60;;;;;;;18.78;25.13;103056.66;5067989;28;20031;-75
2021/03/20 11:18:02;;;;;;;5.07;3.33;;;;;;;16.96;32.17;103060.84;5070489;28;20050;-76
2021/03/20 11:20:33;;;;;;;4.07;2.75;;;;;;;18.83;30.04;103065.47;5053755;28;20031;-73
2021/03/20 11:22:59;;;;;;;4.50;3.25;;;;;;;19.84;28.39;103047.88;5071915;28;20055;-76
2021/03/20 11:25:37;;;;;;;3.70;2.75;;;;;;;20.29;27.05;103051.34;5072794;28;20123;-77
2021/03/20 11:28:13;;;;;;;6.35;3.47;;;;;;;18.87;26.59;103040.41;5056508;28;20033;-75
2021/03/20 11:30:48;;;;;;;6.78;3.00;;;;;;;19.02;28.83;103045.09;5044196;28;20020;-75
2021/03/20 11:33:17;;;;;;;4.55;2.88;;;;;;;16.82;27.75;103050.81;5056129;28;20056;-74
2021/03/20 11:35:48;;;;;;;4.47;3.15;;;;;;;18.32;29.59;103036.34;5061868;28;20074;-76
2021/03/20 11:38:16;;;;;;;5.97;2.95;;;;;;;18.39;27.01;103038.28;5055801;28;20017;-73
2021/03/20 11:40:46;;;;;;;5.72;3.38;;;;;;;18.16;26.31;103041.97;5060486;28;20504;-77
2021/03/20 11:43:42;;;;;;;6.30;3.08;;;;;;;18.67;28.83;103044.22;5061144;28;20542;-76
2021/03/20 11:46:22;;;;;;;6.43;4.10;;;;;;;18.89;29.57;103029.19;5054352;28;20033;-75
2021/03/20 11:48:55;;;;;;;5.93;4.13;;;;;;;18.41;30.36;103027.91;5037433;28;20059;-76
2021/03/20 11:51:23;;;;;;;7.00;4.07;;;;;;;18.42;29.92;103025.34;5063309;28;20021;-76
2021/03/20 11:53:54;;;;;;;6.72;4.43;;;;;;;18.77;28.65;103022.78;5067312;28;20033;-75
2021/03/20 11:56:26;;;;;;;7.63;5.00;;;;;;;16.56;32.69;103030.03;5061858;28;20052;-76